sensor_id;sensor_type;location;lat;lon;timestamp;pressure;altitude;pressure_sealevel;temperature;humidity
47811;BME280;33575;52.600;7.318;2023-02-12T00:01:08;103555.90;;;7.47;94.46
47811;BME280;33575;52.600;7.318;2023-02-12T00:03:38;103557.08;;;7.52;94.21
47811;BME280;33575;52.600;7.318;2023-02-12T00:06:09;103559.16;;;7.55;94.21
47811;BME280;33575;52.600;7.318;2023-02-12T00:08:39;103554.05;;;7.59;94.05
47811;BME280;33575;52.600;7.318;2023-02-12T00:11:11;103553.61;;;7.59;93.49
47811;BME280;33575;52.600;7.318;2023-02-12T00:13:40;103553.85;;;7.58;93.68
47811;BME280;33575;52.600;7.318;2023-02-12T00:16:13;103555.48;;;7.56;93.72
47811;BME280;33575;52.600;7.318;2023-02-12T00:18:41;103558.46;;;7.60;93.92
47811;BME280;33575;52.600;7.318;2023-02-12T00:21:11;103559.33;;;7.59;93.57
47811;BME280;33575;52.600;7.318;2023-02-12T00:23:42;103560.29;;;7.57;93.31
47811;BME280;33575;52.600;7.318;2023-02-12T00:26:14;103562.06;;;7.56;93.29
47811;BME280;33575;52.600;7.318;2023-02-12T00:28:43;103569.67;;;7.52;93.95
47811;BME280;33575;52.600;7.318;2023-02-12T00:31:15;103572.69;;;7.55;93.55
47811;BME280;33575;52.600;7.318;2023-02-12T00:33:43;103569.15;;;7.56;93.02
47811;BME280;33575;52.600;7.318;2023-02-12T00:36:16;103572.60;;;7.54;92.84
47811;BME280;33575;52.600;7.318;2023-02-12T00:38:44;103573.74;;;7.55;93.36
47811;BME280;33575;52.600;7.318;2023-02-12T00:41:14;103578.25;;;7.59;93.17
47811;BME280;33575;52.600;7.318;2023-02-12T00:43:44;103582.13;;;7.65;93.29
47811;BME280;33575;52.600;7.318;2023-02-12T00:46:15;103585.44;;;7.68;93.14
47811;BME280;33575;52.600;7.318;2023-02-12T00:48:45;103589.78;;;7.66;92.66
47811;BME280;33575;52.600;7.318;2023-02-12T00:51:15;103587.07;;;7.71;92.95
47811;BME280;33575;52.600;7.318;2023-02-12T00:53:45;103587.34;;;7.78;92.83
47811;BME280;33575;52.600;7.318;2023-02-12T00:56:16;103586.29;;;7.82;92.70
47811;BME280;33575;52.600;7.318;2023-02-12T00:58:46;103588.88;;;7.84;92.50
47811;BME280;33575;52.600;7.318;2023-02-12T01:01:17;103591.42;;;7.84;92.28
47811;BME280;33575;52.600;7.318;2023-02-12T01:03:47;103591.98;;;7.82;92.48
47811;BME280;33575;52.600;7.318;2023-02-12T01:06:17;103592.34;;;7.83;92.23
47811;BME280;33575;52.600;7.318;2023-02-12T01:08:49;103590.62;;;7.81;91.72
47811;BME280;33575;52.600;7.318;2023-02-12T01:11:18;103588.58;;;7.79;92.33
47811;BME280;33575;52.600;7.318;2023-02-12T01:13:49;103586.27;;;7.78;92.68
47811;BME280;33575;52.600;7.318;2023-02-12T01:16:21;103586.73;;;7.79;92.41
47811;BME280;33575;52.600;7.318;2023-02-12T01:18:50;103586.23;;;7.81;92.25
47811;BME280;33575;52.600;7.318;2023-02-12T01:21:23;103587.16;;;7.79;92.41
47811;BME280;33575;52.600;7.318;2023-02-12T01:23:51;103586.93;;;7.74;92.23
47811;BME280;33575;52.600;7.318;2023-02-12T01:26:21;103592.51;;;7.71;93.01
47811;BME280;33575;52.600;7.318;2023-02-12T01:28:53;103589.97;;;7.71;92.72
47811;BME280;33575;52.600;7.318;2023-02-12T01:31:24;103586.25;;;7.71;92.83
47811;BME280;33575;52.600;7.318;2023-02-12T01:33:53;103585.62;;;7.77;92.60
47811;BME280;33575;52.600;7.318;2023-02-12T01:36:23;103587.64;;;7.80;92.05
47811;BME280;33575;52.600;7.318;2023-02-12T01:38:54;103587.21;;;7.81;92.14
47811;BME280;33575;52.600;7.318;2023-02-12T01:41:26;103587.42;;;7.82;92.16
47811;BME280;33575;52.600;7.318;2023-02-12T01:46:26;103581.95;;;7.72;91.75
47811;BME280;33575;52.600;7.318;2023-02-12T01:48:55;103579.32;;;7.71;92.26
47811;BME280;33575;52.600;7.318;2023-02-12T01:51:26;103583.88;;;7.66;92.31
47811;BME280;33575;52.600;7.318;2023-02-12T01:53:58;103581.82;;;7.64;92.37
47811;BME280;33575;52.600;7.318;2023-02-12T01:56:26;103576.81;;;7.65;92.51
47811;BME280;33575;52.600;7.318;2023-02-12T01:58:57;103572.34;;;7.65;92.69
47811;BME280;33575;52.600;7.318;2023-02-12T02:01:29;103574.32;;;7.66;92.57
47811;BME280;33575;52.600;7.318;2023-02-12T02:04:00;103573.93;;;7.63;92.57
47811;BME280;33575;52.600;7.318;2023-02-12T02:06:31;103569.50;;;7.63;92.60
47811;BME280;33575;52.600;7.318;2023-02-12T02:08:58;103567.60;;;7.65;92.18
47811;BME280;33575;52.600;7.318;2023-02-12T02:11:28;103563.75;;;7.66;92.18
47811;BME280;33575;52.600;7.318;2023-02-12T02:13:59;103564.63;;;7.68;92.75
47811;BME280;33575;52.600;7.318;2023-02-12T02:16:29;103563.92;;;7.66;92.44
47811;BME280;33575;52.600;7.318;2023-02-12T02:19:02;103560.54;;;7.62;92.79
47811;BME280;33575;52.600;7.318;2023-02-12T02:21:45;103560.82;;;7.63;92.46
47811;BME280;33575;52.600;7.318;2023-02-12T02:29:16;103557.26;;;7.56;92.78
47811;BME280;33575;52.600;7.318;2023-02-12T02:31:35;103555.11;;;7.56;92.91
47811;BME280;33575;52.600;7.318;2023-02-12T02:34:08;103555.98;;;7.53;92.74
47811;BME280;33575;52.600;7.318;2023-02-12T02:36:35;103556.40;;;7.52;92.69
47811;BME280;33575;52.600;7.318;2023-02-12T02:39:07;103554.91;;;7.48;93.02
47811;BME280;33575;52.600;7.318;2023-02-12T02:41:37;103553.96;;;7.44;92.14
47811;BME280;33575;52.600;7.318;2023-02-12T02:44:09;103553.71;;;7.45;92.31
47811;BME280;33575;52.600;7.318;2023-02-12T02:46:37;103555.98;;;7.43;92.93
47811;BME280;33575;52.600;7.318;2023-02-12T02:49:07;103555.82;;;7.43;92.86
47811;BME280;33575;52.600;7.318;2023-02-12T02:51:40;103549.89;;;7.43;92.65
47811;BME280;33575;52.600;7.318;2023-02-12T02:54:10;103549.70;;;7.44;92.48
47811;BME280;33575;52.600;7.318;2023-02-12T02:56:38;103551.39;;;7.46;92.67
47811;BME280;33575;52.600;7.318;2023-02-12T02:59:09;103552.13;;;7.48;92.71
47811;BME280;33575;52.600;7.318;2023-02-12T03:01:40;103552.18;;;7.51;92.55
47811;BME280;33575;52.600;7.318;2023-02-12T03:04:09;103549.86;;;7.48;92.62
47811;BME280;33575;52.600;7.318;2023-02-12T03:06:40;103550.40;;;7.44;92.87
47811;BME280;33575;52.600;7.318;2023-02-12T03:09:14;103555.46;;;7.42;93.06
47811;BME280;33575;52.600;7.318;2023-02-12T03:11:37;103561.05;;;7.39;93.03
47811;BME280;33575;52.600;7.318;2023-02-12T03:14:12;103560.27;;;7.39;93.00
47811;BME280;33575;52.600;7.318;2023-02-12T03:16:43;103559.03;;;7.36;94.00
47811;BME280;33575;52.600;7.318;2023-02-12T03:19:12;103557.82;;;7.35;93.75
47811;BME280;33575;52.600;7.318;2023-02-12T03:21:42;103561.07;;;7.33;93.21
47811;BME280;33575;52.600;7.318;2023-02-12T03:24:12;103562.60;;;7.31;93.76
47811;BME280;33575;52.600;7.318;2023-02-12T03:26:45;103562.56;;;7.31;93.82
47811;BME280;33575;52.600;7.318;2023-02-12T03:29:09;103555.50;;;7.27;93.53
47811;BME280;33575;52.600;7.318;2023-02-12T03:31:50;103554.86;;;7.29;93.43
47811;BME280;33575;52.600;7.318;2023-02-12T03:34:15;103555.54;;;7.33;93.22
47811;BME280;33575;52.600;7.318;2023-02-12T03:36:44;103555.40;;;7.27;93.32
47811;BME280;33575;52.600;7.318;2023-02-12T03:39:15;103554.78;;;7.28;93.58
47811;BME280;33575;52.600;7.318;2023-02-12T03:41:45;103553.23;;;7.24;93.92
47811;BME280;33575;52.600;7.318;2023-02-12T03:44:19;103556.99;;;7.26;93.22
47811;BME280;33575;52.600;7.318;2023-02-12T03:46:48;103556.94;;;7.26;93.14
47811;BME280;33575;52.600;7.318;2023-02-12T03:49:19;103556.83;;;7.25;93.77
47811;BME280;33575;52.600;7.318;2023-02-12T03:51:44;103552.16;;;7.25;93.73
47811;BME280;33575;52.600;7.318;2023-02-12T03:54:16;103556.31;;;7.34;100.00
47811;BME280;33575;52.600;7.318;2023-02-12T03:56:47;103551.61;;;7.37;96.82
47811;BME280;33575;52.600;7.318;2023-02-12T03:59:15;103552.64;;;7.39;95.74
47811;BME280;33575;52.600;7.318;2023-02-12T04:01:46;103552.27;;;7.42;94.86
47811;BME280;33575;52.600;7.318;2023-02-12T04:04:16;103551.89;;;7.45;94.29
47811;BME280;33575;52.600;7.318;2023-02-12T04:06:48;103552.70;;;7.46;94.15
47811;BME280;33575;52.600;7.318;2023-02-12T04:09:17;103554.82;;;7.50;93.91
47811;BME280;33575;52.600;7.318;2023-02-12T04:11:59;103554.83;;;7.48;93.25
47811;BME280;33575;52.600;7.318;2023-02-12T04:14:26;103558.77;;;7.47;92.76
47811;BME280;33575;52.600;7.318;2023-02-12T04:16:53;103566.11;;;7.44;93.63
47811;BME280;33575;52.600;7.318;2023-02-12T04:19:25;103564.81;;;7.51;93.43
47811;BME280;33575;52.600;7.318;2023-02-12T04:21:57;103564.69;;;7.56;92.81
47811;BME280;33575;52.600;7.318;2023-02-12T04:24:26;103566.51;;;7.56;91.93
47811;BME280;33575;52.600;7.318;2023-02-12T04:26:53;103567.23;;;7.55;92.37
47811;BME280;33575;52.600;7.318;2023-02-12T04:29:27;103568.30;;;7.53;92.25
47811;BME280;33575;52.600;7.318;2023-02-12T04:31:55;103572.92;;;7.53;92.11
47811;BME280;33575;52.600;7.318;2023-02-12T04:34:26;103575.08;;;7.53;92.21
47811;BME280;33575;52.600;7.318;2023-02-12T04:36:54;103577.77;;;7.48;91.99
47811;BME280;33575;52.600;7.318;2023-02-12T04:39:24;103581.58;;;7.48;92.12
47811;BME280;33575;52.600;7.318;2023-02-12T04:41:52;103583.10;;;7.47;92.46
47811;BME280;33575;52.600;7.318;2023-02-12T04:44:23;103584.93;;;7.45;91.11
47811;BME280;33575;52.600;7.318;2023-02-12T04:46:52;103590.68;;;7.48;91.48
47811;BME280;33575;52.600;7.318;2023-02-12T04:49:24;103587.06;;;7.44;91.96
47811;BME280;33575;52.600;7.318;2023-02-12T04:51:54;103582.98;;;7.41;91.90
47811;BME280;33575;52.600;7.318;2023-02-12T04:54:24;103584.79;;;7.38;92.11
47811;BME280;33575;52.600;7.318;2023-02-12T04:56:55;103585.62;;;7.35;92.92
47811;BME280;33575;52.600;7.318;2023-02-12T04:59:25;103588.86;;;7.32;92.71
47811;BME280;33575;52.600;7.318;2023-02-12T05:01:55;103588.13;;;7.25;92.68
47811;BME280;33575;52.600;7.318;2023-02-12T05:04:26;103586.89;;;7.25;92.86
47811;BME280;33575;52.600;7.318;2023-02-12T05:06:56;103586.59;;;7.20;92.95
47811;BME280;33575;52.600;7.318;2023-02-12T05:09:26;103588.01;;;7.14;93.90
47811;BME280;33575;52.600;7.318;2023-02-12T05:11:57;103593.73;;;7.14;92.72
47811;BME280;33575;52.600;7.318;2023-02-12T05:14:28;103594.09;;;7.18;92.69
47811;BME280;33575;52.600;7.318;2023-02-12T05:16:58;103592.02;;;7.19;92.80
47811;BME280;33575;52.600;7.318;2023-02-12T05:19:28;103592.94;;;7.24;92.44
47811;BME280;33575;52.600;7.318;2023-02-12T05:21:58;103592.26;;;7.26;92.71
47811;BME280;33575;52.600;7.318;2023-02-12T05:24:28;103596.62;;;7.30;92.51
47811;BME280;33575;52.600;7.318;2023-02-12T05:26:59;103594.37;;;7.35;92.97
47811;BME280;33575;52.600;7.318;2023-02-12T05:29:29;103596.25;;;7.34;92.55
47811;BME280;33575;52.600;7.318;2023-02-12T05:32:00;103598.16;;;7.33;92.27
47811;BME280;33575;52.600;7.318;2023-02-12T05:34:30;103601.20;;;7.31;91.87
47811;BME280;33575;52.600;7.318;2023-02-12T05:37:00;103602.41;;;7.28;92.40
47811;BME280;33575;52.600;7.318;2023-02-12T05:39:30;103605.02;;;7.27;92.17
47811;BME280;33575;52.600;7.318;2023-02-12T05:42:01;103603.78;;;7.24;92.12
47811;BME280;33575;52.600;7.318;2023-02-12T05:44:31;103602.48;;;7.24;93.10
47811;BME280;33575;52.600;7.318;2023-02-12T05:47:01;103602.46;;;7.21;92.65
47811;BME280;33575;52.600;7.318;2023-02-12T05:49:32;103604.02;;;7.24;92.53
47811;BME280;33575;52.600;7.318;2023-02-12T05:52:02;103605.20;;;7.26;92.22
47811;BME280;33575;52.600;7.318;2023-02-12T05:54:32;103606.18;;;7.22;92.33
47811;BME280;33575;52.600;7.318;2023-02-12T05:57:03;103608.93;;;7.22;92.34
47811;BME280;33575;52.600;7.318;2023-02-12T05:59:34;103612.53;;;7.21;92.85
47811;BME280;33575;52.600;7.318;2023-02-12T06:02:04;103612.68;;;7.16;93.19
47811;BME280;33575;52.600;7.318;2023-02-12T06:04:35;103609.56;;;7.17;93.03
47811;BME280;33575;52.600;7.318;2023-02-12T06:07:06;103610.28;;;7.17;93.05
47811;BME280;33575;52.600;7.318;2023-02-12T06:09:36;103610.27;;;7.22;93.03
47811;BME280;33575;52.600;7.318;2023-02-12T06:12:06;103607.78;;;7.27;92.30
47811;BME280;33575;52.600;7.318;2023-02-12T06:14:39;103605.84;;;7.26;92.50
47811;BME280;33575;52.600;7.318;2023-02-12T06:17:07;103609.64;;;7.28;92.49
47811;BME280;33575;52.600;7.318;2023-02-12T06:19:37;103612.41;;;7.30;92.61
47811;BME280;33575;52.600;7.318;2023-02-12T06:22:07;103610.14;;;7.33;92.66
47811;BME280;33575;52.600;7.318;2023-02-12T06:24:38;103611.55;;;7.35;92.54
47811;BME280;33575;52.600;7.318;2023-02-12T06:27:08;103614.62;;;7.36;91.92
47811;BME280;33575;52.600;7.318;2023-02-12T06:29:38;103613.84;;;7.36;92.10
47811;BME280;33575;52.600;7.318;2023-02-12T06:32:08;103615.26;;;7.34;92.20
47811;BME280;33575;52.600;7.318;2023-02-12T06:34:39;103616.10;;;7.30;92.62
47811;BME280;33575;52.600;7.318;2023-02-12T06:37:10;103614.88;;;7.31;92.05
47811;BME280;33575;52.600;7.318;2023-02-12T06:39:40;103612.24;;;7.32;92.27
47811;BME280;33575;52.600;7.318;2023-02-12T06:42:11;103622.12;;;7.30;91.68
47811;BME280;33575;52.600;7.318;2023-02-12T06:44:41;103622.52;;;7.23;93.02
47811;BME280;33575;52.600;7.318;2023-02-12T06:47:11;103624.49;;;7.21;92.84
47811;BME280;33575;52.600;7.318;2023-02-12T06:49:43;103627.70;;;7.16;92.53
47811;BME280;33575;52.600;7.318;2023-02-12T06:52:13;103629.70;;;7.12;92.82
47811;BME280;33575;52.600;7.318;2023-02-12T06:54:43;103635.08;;;7.10;93.32
47811;BME280;33575;52.600;7.318;2023-02-12T06:57:14;103636.34;;;7.09;93.09
47811;BME280;33575;52.600;7.318;2023-02-12T06:59:44;103640.41;;;7.10;93.74
47811;BME280;33575;52.600;7.318;2023-02-12T07:02:15;103645.16;;;7.07;93.75
47811;BME280;33575;52.600;7.318;2023-02-12T07:04:45;103651.33;;;7.06;93.96
47811;BME280;33575;52.600;7.318;2023-02-12T07:07:16;103654.53;;;7.12;93.32
47811;BME280;33575;52.600;7.318;2023-02-12T07:09:46;103654.97;;;7.11;94.44
47811;BME280;33575;52.600;7.318;2023-02-12T07:12:16;103659.94;;;7.15;93.93
47811;BME280;33575;52.600;7.318;2023-02-12T07:14:47;103658.18;;;7.14;93.79
47811;BME280;33575;52.600;7.318;2023-02-12T07:17:18;103659.72;;;7.13;94.20
47811;BME280;33575;52.600;7.318;2023-02-12T07:19:48;103663.81;;;7.12;94.35
47811;BME280;33575;52.600;7.318;2023-02-12T07:22:18;103663.75;;;7.15;93.42
47811;BME280;33575;52.600;7.318;2023-02-12T07:24:49;103666.94;;;7.17;93.61
47811;BME280;33575;52.600;7.318;2023-02-12T07:27:19;103667.45;;;7.19;93.85
47811;BME280;33575;52.600;7.318;2023-02-12T07:29:49;103671.63;;;7.20;93.81
47811;BME280;33575;52.600;7.318;2023-02-12T07:32:20;103672.17;;;7.20;93.41
47811;BME280;33575;52.600;7.318;2023-02-12T07:34:51;103675.33;;;7.19;93.49
47811;BME280;33575;52.600;7.318;2023-02-12T07:37:21;103675.40;;;7.19;93.36
47811;BME280;33575;52.600;7.318;2023-02-12T07:39:51;103677.80;;;7.23;93.46
47811;BME280;33575;52.600;7.318;2023-02-12T07:42:22;103679.41;;;7.25;93.18
47811;BME280;33575;52.600;7.318;2023-02-12T07:44:52;103682.41;;;7.28;93.38
47811;BME280;33575;52.600;7.318;2023-02-12T07:47:23;103683.13;;;7.32;93.68
47811;BME280;33575;52.600;7.318;2023-02-12T07:49:53;103682.34;;;7.35;93.44
47811;BME280;33575;52.600;7.318;2023-02-12T07:52:23;103681.28;;;7.37;93.16
47811;BME280;33575;52.600;7.318;2023-02-12T07:54:54;103683.50;;;7.38;93.20
47811;BME280;33575;52.600;7.318;2023-02-12T07:57:24;103685.82;;;7.33;93.09
47811;BME280;33575;52.600;7.318;2023-02-12T07:59:54;103685.87;;;7.34;93.65
47811;BME280;33575;52.600;7.318;2023-02-12T08:02:25;103684.49;;;7.31;93.79
47811;BME280;33575;52.600;7.318;2023-02-12T08:04:58;103686.88;;;7.37;94.00
47811;BME280;33575;52.600;7.318;2023-02-12T08:07:26;103690.66;;;7.32;94.27
47811;BME280;33575;52.600;7.318;2023-02-12T08:09:56;103696.27;;;7.32;93.80
47811;BME280;33575;52.600;7.318;2023-02-12T08:12:27;103696.71;;;7.25;93.99
47811;BME280;33575;52.600;7.318;2023-02-12T08:14:57;103704.51;;;7.23;94.36
47811;BME280;33575;52.600;7.318;2023-02-12T08:17:28;103703.92;;;7.17;95.00
47811;BME280;33575;52.600;7.318;2023-02-12T08:19:58;103708.00;;;7.06;96.21
47811;BME280;33575;52.600;7.318;2023-02-12T08:22:29;103706.31;;;7.06;95.84
47811;BME280;33575;52.600;7.318;2023-02-12T08:24:59;103711.85;;;7.07;94.84
47811;BME280;33575;52.600;7.318;2023-02-12T08:27:30;103714.23;;;7.00;95.45
47811;BME280;33575;52.600;7.318;2023-02-12T08:30:01;103715.79;;;7.06;95.38
47811;BME280;33575;52.600;7.318;2023-02-12T08:32:31;103721.39;;;7.12;94.90
47811;BME280;33575;52.600;7.318;2023-02-12T08:35:02;103721.69;;;7.11;95.54
47811;BME280;33575;52.600;7.318;2023-02-12T08:37:32;103718.71;;;7.14;95.43
47811;BME280;33575;52.600;7.318;2023-02-12T08:40:04;103723.54;;;7.16;96.26
47811;BME280;33575;52.600;7.318;2023-02-12T08:42:33;103723.99;;;7.23;95.42
47811;BME280;33575;52.600;7.318;2023-02-12T08:45:05;103726.28;;;7.18;95.52
47811;BME280;33575;52.600;7.318;2023-02-12T08:47:35;103725.44;;;7.25;95.23
47811;BME280;33575;52.600;7.318;2023-02-12T08:50:07;103729.69;;;7.28;95.89
47811;BME280;33575;52.600;7.318;2023-02-12T08:52:37;103734.45;;;7.31;95.48
47811;BME280;33575;52.600;7.318;2023-02-12T08:55:07;103737.55;;;7.37;95.09
47811;BME280;33575;52.600;7.318;2023-02-12T08:57:38;103740.15;;;7.38;94.62
47811;BME280;33575;52.600;7.318;2023-02-12T09:00:09;103739.99;;;7.33;95.22
47811;BME280;33575;52.600;7.318;2023-02-12T09:02:38;103742.59;;;7.41;94.72
47811;BME280;33575;52.600;7.318;2023-02-12T09:05:09;103744.64;;;7.39;94.97
47811;BME280;33575;52.600;7.318;2023-02-12T09:07:39;103741.67;;;7.36;95.13
47811;BME280;33575;52.600;7.318;2023-02-12T09:10:10;103743.42;;;7.37;94.55
47811;BME280;33575;52.600;7.318;2023-02-12T09:12:40;103748.72;;;7.41;94.75
47811;BME280;33575;52.600;7.318;2023-02-12T09:15:11;103753.74;;;7.42;95.19
47811;BME280;33575;52.600;7.318;2023-02-12T09:17:41;103757.53;;;7.39;95.05
47811;BME280;33575;52.600;7.318;2023-02-12T09:20:11;103757.09;;;7.47;95.31
47811;BME280;33575;52.600;7.318;2023-02-12T09:22:41;103756.84;;;7.50;94.84
47811;BME280;33575;52.600;7.318;2023-02-12T09:25:12;103758.02;;;7.54;95.18
47811;BME280;33575;52.600;7.318;2023-02-12T09:27:42;103761.04;;;7.58;94.99
47811;BME280;33575;52.600;7.318;2023-02-12T09:30:13;103758.66;;;7.56;95.14
47811;BME280;33575;52.600;7.318;2023-02-12T09:32:43;103758.71;;;7.64;94.69
47811;BME280;33575;52.600;7.318;2023-02-12T09:35:13;103757.93;;;7.64;94.83
47811;BME280;33575;52.600;7.318;2023-02-12T09:37:43;103759.11;;;7.71;94.60
47811;BME280;33575;52.600;7.318;2023-02-12T09:40:17;103758.31;;;7.76;94.38
47811;BME280;33575;52.600;7.318;2023-02-12T09:42:56;103760.92;;;7.75;95.12
47811;BME280;33575;52.600;7.318;2023-02-12T09:45:19;103760.32;;;7.72;96.05
47811;BME280;33575;52.600;7.318;2023-02-12T09:47:50;103766.72;;;7.54;96.64
47811;BME280;33575;52.600;7.318;2023-02-12T09:50:26;103766.64;;;7.53;96.88
47811;BME280;33575;52.600;7.318;2023-02-12T09:52:47;103768.88;;;7.65;96.01
47811;BME280;33575;52.600;7.318;2023-02-12T09:55:18;103767.20;;;7.74;96.37
47811;BME280;33575;52.600;7.318;2023-02-12T09:57:47;103766.01;;;7.80;100.00
47811;BME280;33575;52.600;7.318;2023-02-12T10:00:23;103770.73;;;7.92;96.20
47811;BME280;33575;52.600;7.318;2023-02-12T10:02:51;103770.54;;;7.98;95.93
47811;BME280;33575;52.600;7.318;2023-02-12T10:05:22;103767.80;;;7.87;95.80
47811;BME280;33575;52.600;7.318;2023-02-12T10:07:58;103771.36;;;7.87;95.90
47811;BME280;33575;52.600;7.318;2023-02-12T10:10:30;103777.51;;;8.00;96.22
47811;BME280;33575;52.600;7.318;2023-02-12T10:12:53;103777.61;;;8.14;95.61
47811;BME280;33575;52.600;7.318;2023-02-12T10:15:30;103778.50;;;8.20;95.35
47811;BME280;33575;52.600;7.318;2023-02-12T10:17:56;103775.06;;;8.33;95.17
47811;BME280;33575;52.600;7.318;2023-02-12T10:20:31;103778.30;;;8.11;95.51
47811;BME280;33575;52.600;7.318;2023-02-12T10:23:06;103778.17;;;8.08;95.53
47811;BME280;33575;52.600;7.318;2023-02-12T10:25:26;103776.57;;;8.20;95.42
47811;BME280;33575;52.600;7.318;2023-02-12T10:27:54;103773.39;;;8.25;94.86
47811;BME280;33575;52.600;7.318;2023-02-12T10:30:26;103773.80;;;8.38;94.26
47811;BME280;33575;52.600;7.318;2023-02-12T10:32:59;103773.08;;;8.36;94.76
47811;BME280;33575;52.600;7.318;2023-02-12T10:35:25;103777.04;;;8.43;93.97
47811;BME280;33575;52.600;7.318;2023-02-12T10:37:59;103776.63;;;8.47;94.04
47811;BME280;33575;52.600;7.318;2023-02-12T10:40:27;103771.10;;;8.25;94.33
47811;BME280;33575;52.600;7.318;2023-02-12T10:42:57;103770.77;;;8.46;94.54
47811;BME280;33575;52.600;7.318;2023-02-12T10:45:30;103766.62;;;8.59;94.61
47811;BME280;33575;52.600;7.318;2023-02-12T10:48:03;103768.12;;;8.78;95.12
47811;BME280;33575;52.600;7.318;2023-02-12T10:50:36;103768.57;;;8.86;94.08
47811;BME280;33575;52.600;7.318;2023-02-12T10:53:00;103766.76;;;8.81;94.65
47811;BME280;33575;52.600;7.318;2023-02-12T10:55:29;103767.59;;;8.80;94.03
47811;BME280;33575;52.600;7.318;2023-02-12T10:58:00;103765.50;;;8.89;93.55
47811;BME280;33575;52.600;7.318;2023-02-12T11:00:31;103767.33;;;8.74;95.46
47811;BME280;33575;52.600;7.318;2023-02-12T11:03:03;103767.51;;;8.59;97.41
47811;BME280;33575;52.600;7.318;2023-02-12T11:05:32;103768.16;;;8.82;94.69
47811;BME280;33575;52.600;7.318;2023-02-12T11:08:00;103766.63;;;8.90;94.29
47811;BME280;33575;52.600;7.318;2023-02-12T11:10:35;103771.20;;;8.85;93.81
47811;BME280;33575;52.600;7.318;2023-02-12T11:13:02;103769.18;;;8.86;93.77
47811;BME280;33575;52.600;7.318;2023-02-12T11:15:36;103772.14;;;8.77;94.37
47811;BME280;33575;52.600;7.318;2023-02-12T11:18:07;103770.00;;;8.99;93.98
47811;BME280;33575;52.600;7.318;2023-02-12T11:20:36;103767.72;;;9.07;93.64
47811;BME280;33575;52.600;7.318;2023-02-12T11:23:05;103767.08;;;9.14;93.26
47811;BME280;33575;52.600;7.318;2023-02-12T11:25:34;103768.01;;;9.15;93.37
47811;BME280;33575;52.600;7.318;2023-02-12T11:30:34;103767.30;;;9.18;93.33
47811;BME280;33575;52.600;7.318;2023-02-12T11:35:36;103754.63;;;9.24;92.66
47811;BME280;33575;52.600;7.318;2023-02-12T11:40:35;103751.42;;;9.21;92.95
47811;BME280;33575;52.600;7.318;2023-02-12T11:43:07;103748.76;;;9.33;92.91
47811;BME280;33575;52.600;7.318;2023-02-12T11:45:42;103743.75;;;9.44;92.73
47811;BME280;33575;52.600;7.318;2023-02-12T11:48:15;103741.64;;;9.57;92.80
47811;BME280;33575;52.600;7.318;2023-02-12T11:50:37;103737.30;;;9.65;92.33
47811;BME280;33575;52.600;7.318;2023-02-12T11:53:08;103737.07;;;9.77;92.10
47811;BME280;33575;52.600;7.318;2023-02-12T11:55:39;103738.16;;;9.87;92.37
47811;BME280;33575;52.600;7.318;2023-02-12T11:58:14;103735.17;;;9.88;91.98
47811;BME280;33575;52.600;7.318;2023-02-12T12:00:44;103733.11;;;9.84;91.51
47811;BME280;33575;52.600;7.318;2023-02-12T12:03:13;103729.79;;;9.93;91.71
47811;BME280;33575;52.600;7.318;2023-02-12T12:05:44;103729.35;;;9.93;91.02
47811;BME280;33575;52.600;7.318;2023-02-12T12:08:17;103731.96;;;9.89;90.83
47811;BME280;33575;52.600;7.318;2023-02-12T12:10:44;103728.78;;;9.86;90.43
47811;BME280;33575;52.600;7.318;2023-02-12T12:13:13;103728.76;;;9.74;90.38
47811;BME280;33575;52.600;7.318;2023-02-12T12:15:44;103721.41;;;9.71;90.80
47811;BME280;33575;52.600;7.318;2023-02-12T12:18:20;103717.47;;;9.63;90.38
47811;BME280;33575;52.600;7.318;2023-02-12T12:20:46;103713.46;;;9.52;90.87
47811;BME280;33575;52.600;7.318;2023-02-12T12:23:16;103711.68;;;9.63;90.78
47811;BME280;33575;52.600;7.318;2023-02-12T12:25:47;103711.76;;;9.64;90.52
47811;BME280;33575;52.600;7.318;2023-02-12T12:28:26;103711.85;;;9.58;90.56
47811;BME280;33575;52.600;7.318;2023-02-12T12:30:50;103709.33;;;9.37;91.31
47811;BME280;33575;52.600;7.318;2023-02-12T12:33:18;103702.79;;;9.47;91.04
47811;BME280;33575;52.600;7.318;2023-02-12T12:35:51;103699.66;;;9.49;90.70
47811;BME280;33575;52.600;7.318;2023-02-12T12:38:20;103702.85;;;9.48;89.94
47811;BME280;33575;52.600;7.318;2023-02-12T12:40:54;103701.41;;;9.48;89.89
47811;BME280;33575;52.600;7.318;2023-02-12T12:43:20;103696.87;;;9.35;90.33
47811;BME280;33575;52.600;7.318;2023-02-12T12:45:55;103694.54;;;9.47;90.08
47811;BME280;33575;52.600;7.318;2023-02-12T12:48:24;103696.08;;;9.56;90.47
47811;BME280;33575;52.600;7.318;2023-02-12T12:50:57;103694.17;;;9.64;90.51
47811;BME280;33575;52.600;7.318;2023-02-12T12:53:28;103698.79;;;9.80;90.52
47811;BME280;33575;52.600;7.318;2023-02-12T12:56:00;103694.70;;;9.86;89.98
47811;BME280;33575;52.600;7.318;2023-02-12T12:58:24;103694.65;;;9.91;89.97
47811;BME280;33575;52.600;7.318;2023-02-12T13:01:01;103693.11;;;10.03;90.19
47811;BME280;33575;52.600;7.318;2023-02-12T13:05:56;103687.39;;;10.10;89.41
47811;BME280;33575;52.600;7.318;2023-02-12T13:08:32;103684.86;;;10.08;88.71
47811;BME280;33575;52.600;7.318;2023-02-12T13:10:53;103683.95;;;10.07;88.59
47811;BME280;33575;52.600;7.318;2023-02-12T13:13:26;103681.36;;;10.06;88.76
47811;BME280;33575;52.600;7.318;2023-02-12T13:15:55;103680.32;;;10.01;89.06
47811;BME280;33575;52.600;7.318;2023-02-12T13:18:31;103682.19;;;10.00;89.72
47811;BME280;33575;52.600;7.318;2023-02-12T13:20:58;103680.18;;;9.98;89.36
47811;BME280;33575;52.600;7.318;2023-02-12T13:23:27;103679.81;;;10.01;88.95
47811;BME280;33575;52.600;7.318;2023-02-12T13:25:59;103680.81;;;10.13;88.96
47811;BME280;33575;52.600;7.318;2023-02-12T13:28:31;103678.01;;;10.20;88.74
47811;BME280;33575;52.600;7.318;2023-02-12T13:30:54;103680.60;;;10.02;87.58
47811;BME280;33575;52.600;7.318;2023-02-12T13:33:26;103681.88;;;10.08;87.66